Time;durP1;ratioP1;P1;durP2;ratioP2;P2;SDS_P1;SDS_P2;PMS_P1;PMS_P2;Temp;Humidity;BMP_temperature;BMP_pressure;BME280_temperature;BME280_humidity;BME280_pressure;Samples;Min_cycle;Max_cycle;Signal;HPM_P1;HPM_P2
2022/12/29 00:01:31;;;;;;;9.70;8.90;;;;;;;;;;5016126;28;20424;-81
2022/12/29 00:03:59;;;;;;;9.85;9.05;;;;;;;;;;5022654;28;20429;-81
2022/12/29 00:06:31;;;;;;;10.20;9.40;;;;;;;;;;5021235;28;20417;-81
2022/12/29 00:08:57;;;;;;;10.77;9.77;;;;;;;;;;5016448;28;20442;-81
2022/12/29 00:11:24;;;;;;;9.40;8.60;;;;;;;;;;5017131;28;20417;-81
2022/12/29 00:16:36;;;;;;;10.43;9.63;;;;;;;;;;5011124;28;20417;-81
2022/12/29 00:19:04;;;;;;;10.45;9.45;;;;;;;;;;5018614;28;20415;-81
2022/12/29 00:35:26;;;;;;;10.82;9.82;;;;;;;;;;5015201;28;20504;-81
2022/12/29 00:46:04;;;;;;;11.65;10.65;;;;;;;;;;5018324;28;20478;-82
2022/12/29 00:51:15;;;;;;;13.30;11.90;;;;;;;;;;5016236;28;20423;-82
2022/12/29 00:53:41;;;;;;;12.98;11.88;;;;;;;;;;5018664;28;20870;-82
2022/12/29 00:56:08;;;;;;;13.57;12.38;;;;;;;;;;5022111;28;20432;-81
2022/12/29 00:58:35;;;;;;;15.02;13.63;;;;;;;;;;5018483;28;20433;-81
2022/12/29 01:01:02;;;;;;;14.82;13.52;;;;;;;;;;5019483;28;20432;-82
2022/12/29 01:03:28;;;;;;;15.05;13.65;;;;;;;;;;5017684;28;20781;-81
2022/12/29 01:05:54;;;;;;;15.40;14.10;;;;;;;;;;5018011;28;20420;-81
2022/12/29 01:08:22;;;;;;;15.27;13.88;;;;;;;;;;5016368;28;20437;-81
2022/12/29 01:10:57;;;;;;;15.00;13.35;;;;;;;;;;5022726;28;20430;-81
2022/12/29 01:13:23;;;;;;;15.32;13.93;;;;;;;;;;5013837;28;20495;-81
2022/12/29 01:15:50;;;;;;;14.70;13.40;;;;;;;;;;5016293;28;20440;-81
2022/12/29 01:18:20;;;;;;;15.47;13.97;;;;;;;;;;5016724;28;20417;-81
2022/12/29 01:20:49;;;;;;;16.50;14.90;;;;;;;;;;5015448;28;20512;-81
2022/12/29 01:23:15;;;;;;;14.80;13.50;;;;;;;;;;5016673;28;20493;-81
2022/12/29 01:25:43;;;;;;;15.23;13.80;;;;;;;;;;5012131;28;20418;-81
2022/12/29 01:28:09;;;;;;;14.25;12.98;;;;;;;;;;5021247;28;20420;-82
2022/12/29 01:30:36;;;;;;;14.15;12.75;;;;;;;;;;5005164;28;20426;-81
2022/12/29 01:33:03;;;;;;;13.98;12.70;;;;;;;;;;5018573;28;20425;-81
2022/12/29 01:35:29;;;;;;;14.13;12.80;;;;;;;;;;5019025;28;20425;-81
2022/12/29 01:37:55;;;;;;;12.80;11.80;;;;;;;;;;5018261;28;20430;-81
2022/12/29 01:40:22;;;;;;;13.00;11.80;;;;;;;;;;5011942;28;20425;-82
2022/12/29 01:42:49;;;;;;;11.23;10.23;;;;;;;;;;5015209;28;20930;-81
2022/12/29 01:45:17;;;;;;;11.20;10.30;;;;;;;;;;5020922;28;20423;-81
2022/12/29 01:47:44;;;;;;;10.52;9.52;;;;;;;;;;5014636;28;20421;-82
2022/12/29 01:50:12;;;;;;;11.30;10.20;;;;;;;;;;5018205;28;20432;-81
2022/12/29 01:52:43;;;;;;;10.20;9.40;;;;;;;;;;5019539;28;20425;-82
2022/12/29 01:55:11;;;;;;;10.50;9.60;;;;;;;;;;5013004;28;20431;-81
2022/12/29 01:57:39;;;;;;;10.68;9.75;;;;;;;;;;5019836;28;20428;-81
2022/12/29 02:00:09;;;;;;;10.18;9.32;;;;;;;;;;5015470;28;20465;-81
2022/12/29 02:02:35;;;;;;;9.80;9.00;;;;;;;;;;5018456;28;20425;-81
2022/12/29 02:05:05;;;;;;;9.60;8.80;;;;;;;;;;5016208;28;20824;-82
2022/12/29 02:07:32;;;;;;;9.70;8.75;;;;;;;;;;5017866;28;20820;-82
2022/12/29 02:10:01;;;;;;;9.00;8.30;;;;;;;;;;5017629;28;20412;-81
2022/12/29 02:12:27;;;;;;;9.50;8.70;;;;;;;;;;5012154;28;20418;-81
2022/12/29 02:14:55;;;;;;;10.00;9.00;;;;;;;;;;5013156;28;20566;-82
2022/12/29 02:17:28;;;;;;;9.00;8.30;;;;;;;;;;5016242;28;20433;-81
2022/12/29 02:20:13;;;;;;;8.90;8.10;;;;;;;;;;5015815;28;20437;-82
2022/12/29 02:22:48;;;;;;;9.30;8.60;;;;;;;;;;5015528;28;20426;-81
2022/12/29 02:25:44;;;;;;;8.93;8.13;;;;;;;;;;5016529;28;20798;-81
2022/12/29 02:28:25;;;;;;;8.45;7.30;;;;;;;;;;4951411;29;20438;-81
2022/12/29 02:30:56;;;;;;;7.72;7.13;;;;;;;;;;4985386;28;20789;-82
2022/12/29 02:33:27;;;;;;;8.33;7.53;;;;;;;;;;5017858;28;20791;-81
2022/12/29 02:35:56;;;;;;;7.50;6.80;;;;;;;;;;5012398;28;20431;-81
2022/12/29 02:38:28;;;;;;;8.05;7.25;;;;;;;;;;5014477;28;20894;-81
2022/12/29 02:40:58;;;;;;;7.13;6.53;;;;;;;;;;5015161;28;20609;-82
2022/12/29 02:43:27;;;;;;;8.07;6.70;;;;;;;;;;5020736;28;20437;-82
2022/12/29 02:45:57;;;;;;;6.73;6.13;;;;;;;;;;5016316;28;20474;-81
2022/12/29 02:48:26;;;;;;;7.70;7.00;;;;;;;;;;5011146;28;21015;-82
2022/12/29 02:50:56;;;;;;;6.83;6.23;;;;;;;;;;5015233;28;20497;-81
2022/12/29 02:56:04;;;;;;;7.00;6.40;;;;;;;;;;5014856;28;20508;-82
2022/12/29 02:58:31;;;;;;;7.70;5.87;;;;;;;;;;5015842;28;20484;-82
2022/12/29 03:01:04;;;;;;;8.07;7.30;;;;;;;;;;5014640;28;20472;-81
2022/12/29 03:03:36;;;;;;;7.37;6.70;;;;;;;;;;5015611;28;20465;-82
2022/12/29 03:06:13;;;;;;;8.13;7.43;;;;;;;;;;5017165;28;20471;-82
2022/12/29 03:08:44;;;;;;;7.37;6.80;;;;;;;;;;5015543;28;20995;-82
2022/12/29 03:12:07;;;;;;;7.47;6.80;;;;;;;;;;5014585;28;20471;-82
2022/12/29 03:16:49;;;;;;;8.27;7.50;;;;;;;;;;5019005;28;20488;-82
2022/12/29 03:19:18;;;;;;;9.23;8.43;;;;;;;;;;5015170;28;20488;-82
2022/12/29 03:24:30;;;;;;;8.47;7.40;;;;;;;;;;5017076;28;20456;-82
2022/12/29 03:26:59;;;;;;;8.57;7.77;;;;;;;;;;5017757;28;20470;-81
2022/12/29 03:29:26;;;;;;;8.50;7.70;;;;;;;;;;5015043;28;20500;-82
2022/12/29 03:31:55;;;;;;;10.40;7.80;;;;;;;;;;5019684;28;20482;-81
2022/12/29 03:34:22;;;;;;;7.43;6.83;;;;;;;;;;5017545;28;20458;-81
2022/12/29 03:36:50;;;;;;;7.20;6.60;;;;;;;;;;5021511;28;20466;-82
2022/12/29 03:39:19;;;;;;;6.00;5.60;;;;;;;;;;5015855;28;20482;-82
2022/12/29 03:41:46;;;;;;;5.70;5.30;;;;;;;;;;5017748;28;20820;-81
2022/12/29 03:44:13;;;;;;;4.70;4.00;;;;;;;;;;5016343;28;20445;-82
2022/12/29 03:46:39;;;;;;;4.90;4.50;;;;;;;;;;5012385;28;20936;-82
2022/12/29 03:49:07;;;;;;;4.90;4.40;;;;;;;;;;5017362;28;20474;-82
2022/12/29 03:51:34;;;;;;;5.03;4.63;;;;;;;;;;5018370;28;20482;-81
2022/12/29 03:54:00;;;;;;;4.30;3.93;;;;;;;;;;5017375;28;20452;-81
2022/12/29 03:56:27;;;;;;;4.83;4.43;;;;;;;;;;5016379;28;20479;-81
2022/12/29 03:58:53;;;;;;;4.70;4.30;;;;;;;;;;5018780;28;20514;-81
2022/12/29 04:01:19;;;;;;;5.60;5.13;;;;;;;;;;5016126;28;20470;-81
2022/12/29 04:03:46;;;;;;;4.80;4.33;;;;;;;;;;5014358;28;20438;-81
2022/12/29 04:06:14;;;;;;;5.70;5.20;;;;;;;;;;5013534;28;20482;-81
2022/12/29 04:08:40;;;;;;;6.00;5.50;;;;;;;;;;5015679;28;20979;-81
2022/12/29 04:11:06;;;;;;;5.87;5.33;;;;;;;;;;5016885;28;20470;-82
2022/12/29 04:13:33;;;;;;;9.73;5.73;;;;;;;;;;5017253;28;20449;-82
2022/12/29 04:15:59;;;;;;;6.27;5.77;;;;;;;;;;5016418;28;20474;-82
2022/12/29 04:18:26;;;;;;;5.30;4.80;;;;;;;;;;5016636;28;20470;-82
2022/12/29 04:23:40;;;;;;;5.77;5.27;;;;;;;;;;5016194;28;20504;-81
2022/12/29 04:26:07;;;;;;;5.60;5.10;;;;;;;;;;5017627;28;20521;-81
2022/12/29 04:28:34;;;;;;;7.33;6.73;;;;;;;;;;5015133;28;20462;-82
2022/12/29 04:31:00;;;;;;;5.30;4.90;;;;;;;;;;5010409;28;20501;-82
2022/12/29 04:33:27;;;;;;;5.87;5.43;;;;;;;;;;5008027;28;20527;-81
2022/12/29 04:35:54;;;;;;;5.80;5.30;;;;;;;;;;5016853;28;20565;-81
2022/12/29 04:38:22;;;;;;;6.73;6.03;;;;;;;;;;5017238;28;20468;-81
2022/12/29 04:40:50;;;;;;;7.47;6.10;;;;;;;;;;5016845;28;20488;-81
2022/12/29 04:43:18;;;;;;;6.03;5.53;;;;;;;;;;5017960;28;20460;-82
2022/12/29 04:45:45;;;;;;;6.43;5.60;;;;;;;;;;5017461;28;20531;-82
2022/12/29 04:48:11;;;;;;;6.17;5.67;;;;;;;;;;5017277;28;20468;-82
2022/12/29 04:50:38;;;;;;;6.70;6.10;;;;;;;;;;5022340;28;20528;-81
2022/12/29 04:53:04;;;;;;;6.20;5.60;;;;;;;;;;5013266;28;20522;-81
2022/12/29 04:55:30;;;;;;;5.90;5.43;;;;;;;;;;5017254;28;20487;-82
2022/12/29 04:57:58;;;;;;;5.97;5.47;;;;;;;;;;5018919;28;20473;-82
2022/12/29 05:00:24;;;;;;;4.93;4.47;;;;;;;;;;5016369;28;20822;-81
2022/12/29 05:02:51;;;;;;;3.60;3.40;;;;;;;;;;5017595;28;20457;-81
2022/12/29 05:05:17;;;;;;;4.87;4.20;;;;;;;;;;5021622;28;20488;-81
2022/12/29 05:07:43;;;;;;;4.10;3.70;;;;;;;;;;5018212;28;20470;-82
2022/12/29 05:10:10;;;;;;;5.00;4.30;;;;;;;;;;5017557;28;20476;-82
2022/12/29 05:12:39;;;;;;;4.07;3.77;;;;;;;;;;5020283;28;20481;-81
2022/12/29 05:15:08;;;;;;;3.47;3.17;;;;;;;;;;5017685;28;20468;-82
2022/12/29 05:17:34;;;;;;;3.40;3.10;;;;;;;;;;5019461;28;20861;-82
2022/12/29 05:20:01;;;;;;;4.30;2.40;;;;;;;;;;5014739;28;20482;-82
2022/12/29 05:22:27;;;;;;;3.27;2.87;;;;;;;;;;5017829;28;20457;-82
2022/12/29 05:24:54;;;;;;;2.57;2.47;;;;;;;;;;5013668;28;20489;-81
2022/12/29 05:27:20;;;;;;;2.53;2.10;;;;;;;;;;5016983;28;20459;-81
2022/12/29 05:29:47;;;;;;;2.37;2.17;;;;;;;;;;5017753;28;20478;-81
2022/12/29 05:32:14;;;;;;;1.60;1.40;;;;;;;;;;5014646;28;20484;-81
2022/12/29 05:34:41;;;;;;;2.20;1.53;;;;;;;;;;5016366;28;20481;-82
2022/12/29 05:37:07;;;;;;;1.47;1.37;;;;;;;;;;5023552;28;20467;-82
2022/12/29 05:39:33;;;;;;;1.50;1.40;;;;;;;;;;5017903;28;20473;-82
2022/12/29 05:42:00;;;;;;;1.60;1.50;;;;;;;;;;5016777;28;20800;-81
2022/12/29 05:44:26;;;;;;;1.60;1.50;;;;;;;;;;5017511;28;20457;-82
2022/12/29 05:46:53;;;;;;;1.30;1.20;;;;;;;;;;5015139;28;20466;-81
2022/12/29 05:49:21;;;;;;;3.13;1.30;;;;;;;;;;5018142;28;20485;-82
2022/12/29 05:51:47;;;;;;;2.20;1.90;;;;;;;;;;5018591;28;20497;-82
2022/12/29 05:54:15;;;;;;;1.37;1.27;;;;;;;;;;5014847;28;20466;-81
2022/12/29 05:56:41;;;;;;;2.50;1.13;;;;;;;;;;5015103;28;20461;-81
2022/12/29 05:59:07;;;;;;;1.73;1.40;;;;;;;;;;5019642;28;20465;-82
2022/12/29 06:01:34;;;;;;;4.77;1.40;;;;;;;;;;5018469;28;20482;-82
2022/12/29 06:04:00;;;;;;;1.57;1.30;;;;;;;;;;5018358;28;20460;-81
2022/12/29 06:06:28;;;;;;;0.90;0.90;;;;;;;;;;5010035;28;20485;-81
2022/12/29 06:08:54;;;;;;;1.30;1.20;;;;;;;;;;5018573;28;20461;-82
2022/12/29 06:11:21;;;;;;;1.60;1.50;;;;;;;;;;5020006;28;20486;-82
2022/12/29 06:13:47;;;;;;;2.83;1.40;;;;;;;;;;5015559;28;20558;-82
2022/12/29 06:16:14;;;;;;;1.47;1.37;;;;;;;;;;5012568;28;20481;-81
2022/12/29 06:18:40;;;;;;;2.90;1.60;;;;;;;;;;5020178;28;20485;-82
2022/12/29 06:21:06;;;;;;;1.53;1.30;;;;;;;;;;5017809;28;20470;-82
2022/12/29 06:23:34;;;;;;;2.70;1.50;;;;;;;;;;5016940;28;20456;-81
2022/12/29 06:26:00;;;;;;;3.10;2.07;;;;;;;;;;5014661;28;20474;-81
2022/12/29 06:28:27;;;;;;;1.40;1.30;;;;;;;;;;5015336;28;20479;-82
2022/12/29 06:30:53;;;;;;;2.50;1.50;;;;;;;;;;5012341;28;20469;-81
2022/12/29 06:33:20;;;;;;;5.40;1.80;;;;;;;;;;5015565;28;20497;-81
2022/12/29 06:35:47;;;;;;;2.63;1.23;;;;;;;;;;5013127;28;20562;-81
2022/12/29 06:38:13;;;;;;;1.60;1.50;;;;;;;;;;5013758;28;20465;-82
2022/12/29 06:40:42;;;;;;;1.23;1.13;;;;;;;;;;5016278;28;20471;-82
2022/12/29 06:43:09;;;;;;;3.13;1.43;;;;;;;;;;5018563;28;20544;-81
2022/12/29 06:45:35;;;;;;;1.90;1.53;;;;;;;;;;5017094;28;20466;-81
2022/12/29 06:48:02;;;;;;;4.83;1.30;;;;;;;;;;5019210;28;20465;-81
2022/12/29 06:50:28;;;;;;;1.33;1.23;;;;;;;;;;5018199;28;20484;-81
2022/12/29 06:52:54;;;;;;;1.97;1.30;;;;;;;;;;5012725;28;20486;-81
2022/12/29 06:55:22;;;;;;;2.17;1.50;;;;;;;;;;5015810;28;20476;-80
2022/12/29 06:57:49;;;;;;;2.40;1.70;;;;;;;;;;5018384;28;20498;-81
2022/12/29 07:00:16;;;;;;;1.50;1.40;;;;;;;;;;5014163;28;20466;-81
2022/12/29 07:02:43;;;;;;;2.40;1.73;;;;;;;;;;5016832;28;20450;-81
2022/12/29 07:05:10;;;;;;;3.70;1.93;;;;;;;;;;5018269;28;20987;-81
2022/12/29 07:07:36;;;;;;;3.40;1.73;;;;;;;;;;5012225;28;20478;-81
2022/12/29 07:10:03;;;;;;;1.67;1.57;;;;;;;;;;5015004;28;21020;-82
2022/12/29 07:12:29;;;;;;;2.47;2.20;;;;;;;;;;5016055;28;20481;-81
2022/12/29 07:14:57;;;;;;;3.67;1.73;;;;;;;;;;5018229;28;20846;-82
2022/12/29 07:17:24;;;;;;;2.30;2.03;;;;;;;;;;5017429;28;20580;-82
2022/12/29 07:19:52;;;;;;;3.80;1.83;;;;;;;;;;5018303;28;20927;-82
2022/12/29 07:22:18;;;;;;;3.10;1.77;;;;;;;;;;5015556;28;20446;-82
2022/12/29 07:24:46;;;;;;;7.20;1.97;;;;;;;;;;5014994;28;20482;-81
2022/12/29 07:27:13;;;;;;;2.50;1.63;;;;;;;;;;5019192;28;20450;-82
2022/12/29 07:29:39;;;;;;;6.40;1.70;;;;;;;;;;5012836;28;20495;-81
2022/12/29 07:32:07;;;;;;;2.40;1.53;;;;;;;;;;5017124;28;20490;-82
2022/12/29 07:34:34;;;;;;;2.10;1.90;;;;;;;;;;5011712;28;20466;-81
2022/12/29 07:37:00;;;;;;;4.97;2.17;;;;;;;;;;5013523;28;20936;-81
2022/12/29 07:39:26;;;;;;;2.70;1.87;;;;;;;;;;5013458;28;20508;-81
2022/12/29 07:41:53;;;;;;;2.87;1.67;;;;;;;;;;5016225;28;20445;-82
2022/12/29 07:44:19;;;;;;;3.50;1.80;;;;;;;;;;5016807;28;20462;-81
2022/12/29 07:46:46;;;;;;;4.30;2.10;;;;;;;;;;5018768;28;20461;-82
2022/12/29 07:49:14;;;;;;;2.30;1.60;;;;;;;;;;5018535;28;20537;-82
2022/12/29 07:51:40;;;;;;;1.80;1.67;;;;;;;;;;5014415;28;20461;-82
2022/12/29 07:54:06;;;;;;;1.73;1.27;;;;;;;;;;5012845;28;20468;-82
2022/12/29 07:56:33;;;;;;;1.70;1.50;;;;;;;;;;5012654;28;20477;-82
2022/12/29 07:58:59;;;;;;;4.80;1.67;;;;;;;;;;5016502;28;20998;-82
2022/12/29 08:01:25;;;;;;;6.30;2.00;;;;;;;;;;5012086;28;20479;-82
2022/12/29 08:03:52;;;;;;;1.50;1.40;;;;;;;;;;5015643;28;20450;-81
2022/12/29 08:06:20;;;;;;;2.23;1.60;;;;;;;;;;5015284;28;20858;-81
2022/12/29 08:08:46;;;;;;;2.37;1.57;;;;;;;;;;5012654;28;20482;-81
2022/12/29 08:11:13;;;;;;;2.60;1.70;;;;;;;;;;5016369;28;20469;-81
2022/12/29 08:13:39;;;;;;;3.27;1.70;;;;;;;;;;5014676;28;20508;-82
2022/12/29 08:16:06;;;;;;;3.10;1.60;;;;;;;;;;5015384;28;20565;-82
2022/12/29 08:18:32;;;;;;;4.73;2.77;;;;;;;;;;5016376;28;21005;-82
2022/12/29 08:21:02;;;;;;;4.70;3.43;;;;;;;;;;5014484;28;20469;-82
2022/12/29 08:23:30;;;;;;;5.43;2.47;;;;;;;;;;5015665;28;20447;-82
2022/12/29 08:25:59;;;;;;;5.93;1.97;;;;;;;;;;5012858;28;20468;-82
2022/12/29 08:28:26;;;;;;;5.20;1.63;;;;;;;;;;5023142;28;20486;-82
2022/12/29 08:30:52;;;;;;;5.70;1.80;;;;;;;;;;5023397;28;21061;-81
2022/12/29 08:33:19;;;;;;;3.80;1.27;;;;;;;;;;5019548;28;20496;-82
2022/12/29 08:35:45;;;;;;;7.43;1.97;;;;;;;;;;5018814;28;20480;-82
2022/12/29 08:38:12;;;;;;;8.73;1.73;;;;;;;;;;5018755;28;20481;-82
2022/12/29 08:40:39;;;;;;;9.50;2.50;;;;;;;;;;5018697;28;20504;-82
2022/12/29 08:43:06;;;;;;;8.57;3.00;;;;;;;;;;5021818;28;20459;-82
2022/12/29 08:45:33;;;;;;;3.20;1.60;;;;;;;;;;5014779;28;20474;-81
2022/12/29 08:47:59;;;;;;;8.17;2.30;;;;;;;;;;5018665;28;20461;-82
2022/12/29 08:50:26;;;;;;;5.70;2.03;;;;;;;;;;5014362;28;20481;-82
2022/12/29 08:52:52;;;;;;;8.53;1.80;;;;;;;;;;5017360;28;20509;-82
2022/12/29 08:55:19;;;;;;;8.00;2.13;;;;;;;;;;5014549;28;20470;-82
2022/12/29 08:57:47;;;;;;;3.90;2.30;;;;;;;;;;5015912;28;20486;-82
2022/12/29 09:00:14;;;;;;;3.83;1.93;;;;;;;;;;5015664;28;20500;-82
2022/12/29 09:02:41;;;;;;;7.50;3.07;;;;;;;;;;5005829;28;20480;-81
2022/12/29 09:05:08;;;;;;;5.40;2.50;;;;;;;;;;5015964;28;20458;-82
2022/12/29 09:07:34;;;;;;;2.83;1.60;;;;;;;;;;5015206;28;20481;-81
2022/12/29 09:10:01;;;;;;;8.97;2.53;;;;;;;;;;5017934;28;20454;-82
2022/12/29 09:12:27;;;;;;;3.20;1.97;;;;;;;;;;5019323;28;20481;-82
2022/12/29 09:14:55;;;;;;;5.30;2.30;;;;;;;;;;5020052;28;21006;-81
2022/12/29 09:20:06;;;;;;;5.70;1.63;;;;;;;;;;5019337;28;20505;-82
2022/12/29 09:22:33;;;;;;;8.83;2.30;;;;;;;;;;5018294;28;20481;-81
2022/12/29 09:24:59;;;;;;;6.53;1.50;;;;;;;;;;5023397;28;20456;-81
2022/12/29 09:27:25;;;;;;;2.17;1.70;;;;;;;;;;5020596;28;20473;-81
2022/12/29 09:29:52;;;;;;;5.30;1.53;;;;;;;;;;5021582;28;20461;-81
2022/12/29 09:32:19;;;;;;;4.63;1.70;;;;;;;;;;5021334;28;20530;-81
2022/12/29 09:34:46;;;;;;;12.40;1.73;;;;;;;;;;5017644;28;20457;-82
2022/12/29 09:37:12;;;;;;;5.93;2.10;;;;;;;;;;5020494;28;20462;-82
2022/12/29 09:39:38;;;;;;;6.63;2.10;;;;;;;;;;5019810;28;20492;-81
2022/12/29 09:42:08;;;;;;;6.17;2.20;;;;;;;;;;5018929;28;20482;-81
2022/12/29 09:44:45;;;;;;;4.73;1.50;;;;;;;;;;5021845;28;20446;-81
2022/12/29 09:47:14;;;;;;;7.23;2.27;;;;;;;;;;5015028;28;20480;-81
2022/12/29 09:49:45;;;;;;;7.00;1.80;;;;;;;;;;5009517;28;20454;-81
2022/12/29 09:52:14;;;;;;;5.17;1.97;;;;;;;;;;5022249;28;20477;-81
2022/12/29 09:54:44;;;;;;;4.13;1.77;;;;;;;;;;5017472;28;20462;-81
2022/12/29 09:57:14;;;;;;;6.73;2.23;;;;;;;;;;5012529;28;20489;-81
2022/12/29 09:59:42;;;;;;;4.53;2.00;;;;;;;;;;5015124;28;20458;-81
2022/12/29 10:02:15;;;;;;;6.70;1.53;;;;;;;;;;5017530;28;21002;-82
2022/12/29 10:04:44;;;;;;;5.67;1.63;;;;;;;;;;5016806;28;20461;-82
2022/12/29 10:07:15;;;;;;;7.17;1.70;;;;;;;;;;5015563;28;20834;-82
2022/12/29 10:09:46;;;;;;;4.80;1.80;;;;;;;;;;5018898;28;20458;-82
2022/12/29 10:12:19;;;;;;;4.17;1.63;;;;;;;;;;5016372;28;20470;-82
2022/12/29 10:14:52;;;;;;;4.50;1.87;;;;;;;;;;5014139;28;20450;-82
2022/12/29 10:17:28;;;;;;;12.17;2.03;;;;;;;;;;5014014;28;20485;-81
2022/12/29 10:20:11;;;;;;;7.80;1.67;;;;;;;;;;5012186;28;20453;-81
2022/12/29 10:22:43;;;;;;;4.80;1.70;;;;;;;;;;5010246;28;20471;-82
2022/12/29 10:25:13;;;;;;;6.93;1.20;;;;;;;;;;5016695;28;20454;-81
2022/12/29 10:27:40;;;;;;;6.13;1.70;;;;;;;;;;5014485;28;20486;-82
2022/12/29 10:30:11;;;;;;;3.57;1.17;;;;;;;;;;5013490;28;20487;-81
2022/12/29 10:32:39;;;;;;;4.43;1.37;;;;;;;;;;5019407;28;20477;-82
2022/12/29 10:35:12;;;;;;;11.10;1.20;;;;;;;;;;5017908;28;20472;-82
2022/12/29 10:37:43;;;;;;;5.77;1.10;;;;;;;;;;5020439;28;20520;-82
2022/12/29 10:40:16;;;;;;;4.63;1.17;;;;;;;;;;5016127;28;20462;-82
2022/12/29 10:42:45;;;;;;;3.70;1.33;;;;;;;;;;5012026;28;20474;-82
2022/12/29 10:45:13;;;;;;;6.23;1.77;;;;;;;;;;5017580;28;20453;-82
2022/12/29 10:47:44;;;;;;;3.47;1.00;;;;;;;;;;5020812;28;20470;-82
2022/12/29 10:50:13;;;;;;;5.90;1.20;;;;;;;;;;5014004;28;20465;-81
2022/12/29 10:52:40;;;;;;;1.67;1.23;;;;;;;;;;5019754;28;20483;-82
2022/12/29 10:55:13;;;;;;;3.80;1.30;;;;;;;;;;5022716;28;20846;-82
2022/12/29 10:57:44;;;;;;;9.00;1.53;;;;;;;;;;5015245;28;20474;-82
2022/12/29 11:00:13;;;;;;;2.40;1.23;;;;;;;;;;5016957;28;20477;-82
2022/12/29 11:02:54;;;;;;;8.93;2.40;;;;;;;;;;5014056;28;20474;-81
2022/12/29 11:05:24;;;;;;;6.90;1.97;;;;;;;;;;5019605;28;20461;-82
2022/12/29 11:07:52;;;;;;;7.00;1.40;;;;;;;;;;5011160;28;20502;-82
2022/12/29 11:10:20;;;;;;;1.83;1.20;;;;;;;;;;5017657;28;20465;-82
2022/12/29 11:13:04;;;;;;;5.37;1.80;;;;;;;;;;5020809;28;20474;-82
2022/12/29 11:15:39;;;;;;;5.57;1.73;;;;;;;;;;5017227;28;20461;-82
2022/12/29 11:18:05;;;;;;;4.33;1.67;;;;;;;;;;5013495;28;20488;-82
2022/12/29 11:20:34;;;;;;;4.00;1.80;;;;;;;;;;5012972;28;20453;-82
2022/12/29 11:23:01;;;;;;;1.87;1.60;;;;;;;;;;5021129;28;20470;-82
2022/12/29 11:25:27;;;;;;;4.90;1.53;;;;;;;;;;5018302;28;20461;-81
2022/12/29 11:27:58;;;;;;;5.13;1.87;;;;;;;;;;5012960;28;20474;-82
2022/12/29 11:30:25;;;;;;;2.47;1.63;;;;;;;;;;5016662;28;20480;-82
2022/12/29 11:32:53;;;;;;;4.93;1.63;;;;;;;;;;5011071;28;20497;-82
2022/12/29 11:35:31;;;;;;;5.57;1.60;;;;;;;;;;5018325;28;20447;-82
2022/12/29 11:37:59;;;;;;;5.10;1.83;;;;;;;;;;5012266;28;20489;-81
2022/12/29 11:40:26;;;;;;;4.57;1.60;;;;;;;;;;5020493;28;20898;-82
2022/12/29 11:42:53;;;;;;;6.27;1.60;;;;;;;;;;5017706;28;20501;-82
2022/12/29 11:45:21;;;;;;;8.13;2.03;;;;;;;;;;5019010;28;20448;-81
2022/12/29 11:47:48;;;;;;;5.27;2.00;;;;;;;;;;5017326;28;20481;-82
2022/12/29 11:50:18;;;;;;;5.43;1.60;;;;;;;;;;5018275;28;20473;-82
2022/12/29 11:52:45;;;;;;;4.93;1.80;;;;;;;;;;5013645;28;20505;-82
2022/12/29 11:55:19;;;;;;;4.17;2.17;;;;;;;;;;5020954;28;20456;-82
2022/12/29 11:57:46;;;;;;;3.90;2.00;;;;;;;;;;5023279;28;21106;-82
2022/12/29 12:00:16;;;;;;;9.07;2.63;;;;;;;;;;5022491;28;20471;-82
2022/12/29 12:02:45;;;;;;;5.03;1.80;;;;;;;;;;5019854;28;20474;-82
2022/12/29 12:05:18;;;;;;;9.90;2.40;;;;;;;;;;5023206;28;20948;-81
2022/12/29 12:07:46;;;;;;;8.67;2.87;;;;;;;;;;5019006;28;20481;-82
2022/12/29 12:10:20;;;;;;;5.47;1.67;;;;;;;;;;5017825;28;20458;-81
2022/12/29 12:12:49;;;;;;;10.30;3.13;;;;;;;;;;5015187;28;20478;-82
2022/12/29 12:15:20;;;;;;;5.33;2.50;;;;;;;;;;5022300;28;20546;-82
2022/12/29 12:17:50;;;;;;;5.40;1.90;;;;;;;;;;5018353;28;20489;-82
2022/12/29 12:20:19;;;;;;;5.70;2.37;;;;;;;;;;5024478;28;20451;-81
2022/12/29 12:22:47;;;;;;;7.70;2.13;;;;;;;;;;5023100;28;20466;-82
2022/12/29 12:25:16;;;;;;;6.70;2.57;;;;;;;;;;5021113;28;20473;-82
2022/12/29 12:27:47;;;;;;;13.13;4.33;;;;;;;;;;5021955;28;20479;-81
2022/12/29 12:30:15;;;;;;;9.07;2.10;;;;;;;;;;5024137;28;20457;-81
2022/12/29 12:32:45;;;;;;;6.83;2.30;;;;;;;;;;5019169;28;20489;-81
2022/12/29 12:35:12;;;;;;;7.00;2.30;;;;;;;;;;5018583;28;20504;-81
2022/12/29 12:37:47;;;;;;;2.83;1.57;;;;;;;;;;5015026;28;20496;-80
2022/12/29 12:40:33;;;;;;;3.10;1.50;;;;;;;;;;5018808;28;20464;-81
2022/12/29 12:43:08;;;;;;;3.77;1.83;;;;;;;;;;5019073;28;20566;-81
2022/12/29 12:45:42;;;;;;;8.10;3.70;;;;;;;;;;5021795;28;20512;-81
2022/12/29 12:48:15;;;;;;;6.13;3.30;;;;;;;;;;5019333;28;20489;-81
2022/12/29 12:50:49;;;;;;;6.43;2.03;;;;;;;;;;5024954;28;20515;-82
2022/12/29 12:53:23;;;;;;;5.90;2.67;;;;;;;;;;5020141;28;20473;-82
2022/12/29 12:56:08;;;;;;;8.93;3.30;;;;;;;;;;5022136;28;20466;-82
2022/12/29 12:58:45;;;;;;;4.30;1.40;;;;;;;;;;5015720;28;20484;-81
2022/12/29 13:01:15;;;;;;;3.40;1.77;;;;;;;;;;5021165;28;20465;-82
2022/12/29 13:03:48;;;;;;;5.77;2.13;;;;;;;;;;5020327;28;20478;-82
2022/12/29 13:06:19;;;;;;;8.10;2.87;;;;;;;;;;5015622;28;20451;-82
2022/12/29 13:09:01;;;;;;;10.70;2.93;;;;;;;;;;5020541;28;20477;-82
2022/12/29 13:11:32;;;;;;;5.83;2.23;;;;;;;;;;5016884;28;20461;-81
2022/12/29 13:14:16;;;;;;;5.90;2.27;;;;;;;;;;5022188;28;20473;-82
2022/12/29 13:16:45;;;;;;;4.53;2.53;;;;;;;;;;5021627;28;20478;-81
2022/12/29 13:19:14;;;;;;;9.63;2.53;;;;;;;;;;5020624;28;20477;-82
2022/12/29 13:21:49;;;;;;;6.87;2.63;;;;;;;;;;5011623;28;20470;-82
2022/12/29 13:24:17;;;;;;;5.30;2.30;;;;;;;;;;5021460;28;20456;-82
2022/12/29 13:26:47;;;;;;;5.20;2.40;;;;;;;;;;5017271;28;20466;-81
2022/12/29 13:29:18;;;;;;;6.50;2.20;;;;;;;;;;5014544;28;20481;-81
2022/12/29 13:31:50;;;;;;;4.63;1.83;;;;;;;;;;5018464;28;20492;-82
2022/12/29 13:34:22;;;;;;;11.27;2.40;;;;;;;;;;5024600;28;20983;-81
2022/12/29 13:36:52;;;;;;;5.87;2.23;;;;;;;;;;5019776;28;20864;-81
2022/12/29 13:39:20;;;;;;;4.27;1.70;;;;;;;;;;5018389;28;20479;-81
2022/12/29 13:41:49;;;;;;;8.60;2.03;;;;;;;;;;5019319;28;20478;-81
2022/12/29 13:44:18;;;;;;;7.10;1.73;;;;;;;;;;5014612;28;20459;-82
2022/12/29 13:46:46;;;;;;;4.73;1.80;;;;;;;;;;5020760;28;20477;-82
2022/12/29 13:49:14;;;;;;;5.13;2.20;;;;;;;;;;5017879;28;20555;-82
2022/12/29 13:51:44;;;;;;;5.33;1.87;;;;;;;;;;5016649;28;20474;-82
2022/12/29 13:54:18;;;;;;;7.40;2.00;;;;;;;;;;5020960;28;20504;-82
2022/12/29 13:56:50;;;;;;;7.47;2.10;;;;;;;;;;5017495;28;20477;-81
2022/12/29 13:59:22;;;;;;;6.13;2.00;;;;;;;;;;5020471;28;21021;-81
2022/12/29 14:01:51;;;;;;;5.13;1.60;;;;;;;;;;5017938;28;20477;-82
2022/12/29 14:04:22;;;;;;;5.87;2.20;;;;;;;;;;5018921;28;20434;-81
2022/12/29 14:06:58;;;;;;;6.83;1.90;;;;;;;;;;5018579;28;20474;-82
2022/12/29 14:09:35;;;;;;;4.13;1.70;;;;;;;;;;5015759;28;20462;-82
2022/12/29 14:12:01;;;;;;;12.03;3.50;;;;;;;;;;5016767;28;20476;-82
2022/12/29 14:14:31;;;;;;;4.30;2.07;;;;;;;;;;5020645;28;20509;-82
2022/12/29 14:17:09;;;;;;;3.77;1.50;;;;;;;;;;5018723;28;20474;-82
2022/12/29 14:19:43;;;;;;;5.87;2.30;;;;;;;;;;5021489;28;20460;-82
2022/12/29 14:22:10;;;;;;;11.70;2.13;;;;;;;;;;5024026;28;20476;-82
2022/12/29 14:24:41;;;;;;;7.07;2.40;;;;;;;;;;5019300;28;20457;-82
2022/12/29 14:27:41;;;;;;;6.60;2.73;;;;;;;;;;5020448;28;20483;-82
2022/12/29 14:30:36;;;;;;;6.10;2.27;;;;;;;;;;4973852;28;20464;-82
2022/12/29 14:33:04;;;;;;;10.33;2.27;;;;;;;;;;4972651;28;20487;-82
2022/12/29 14:35:51;;;;;;;5.47;3.07;;;;;;;;;;4997594;28;20494;-82
2022/12/29 14:38:23;;;;;;;5.53;2.23;;;;;;;;;;5016913;28;20527;-82
2022/12/29 14:40:50;;;;;;;5.30;1.73;;;;;;;;;;5015596;28;20453;-82
2022/12/29 14:43:21;;;;;;;3.70;2.13;;;;;;;;;;5020676;28;20504;-82
2022/12/29 14:45:53;;;;;;;10.00;2.10;;;;;;;;;;5017583;28;20502;-82
2022/12/29 14:48:37;;;;;;;7.43;2.40;;;;;;;;;;5017937;28;20477;-83
2022/12/29 14:51:17;;;;;;;4.83;2.30;;;;;;;;;;5022320;28;20506;-82
2022/12/29 14:53:45;;;;;;;16.33;5.53;;;;;;;;;;5017619;28;20466;-82
2022/12/29 14:56:12;;;;;;;12.20;4.00;;;;;;;;;;5015589;28;20465;-82
2022/12/29 14:58:48;;;;;;;6.50;1.90;;;;;;;;;;5019571;28;20588;-83
2022/12/29 15:01:19;;;;;;;9.63;2.60;;;;;;;;;;5015169;28;20530;-83
2022/12/29 15:03:46;;;;;;;7.70;2.43;;;;;;;;;;5013511;28;20964;-83
2022/12/29 15:06:18;;;;;;;8.53;2.30;;;;;;;;;;5018967;28;20526;-82
2022/12/29 15:08:48;;;;;;;7.50;2.50;;;;;;;;;;5018318;28;20473;-83
2022/12/29 15:11:16;;;;;;;5.83;2.17;;;;;;;;;;5019090;28;20462;-82
2022/12/29 15:13:43;;;;;;;9.40;2.93;;;;;;;;;;5018916;28;20461;-82
2022/12/29 15:16:23;;;;;;;6.57;2.20;;;;;;;;;;5022036;28;20548;-83
2022/12/29 15:18:49;;;;;;;9.50;2.90;;;;;;;;;;5016177;28;20482;-82
2022/12/29 15:21:16;;;;;;;8.83;2.53;;;;;;;;;;5022421;28;20457;-83
2022/12/29 15:23:44;;;;;;;7.50;2.77;;;;;;;;;;5019530;28;20977;-83
2022/12/29 15:26:10;;;;;;;7.37;2.63;;;;;;;;;;5017586;28;20473;-82
2022/12/29 15:28:38;;;;;;;4.50;1.97;;;;;;;;;;5035642;28;20490;-82
2022/12/29 15:31:06;;;;;;;7.10;3.27;;;;;;;;;;5039206;28;20488;-83
2022/12/29 15:33:38;;;;;;;7.50;3.20;;;;;;;;;;5038994;28;20479;-82